sensor_id;sensor_type;location;lat;lon;timestamp;P1;durP1;ratioP1;P2;durP2;ratioP2
69730;SDS011;56996;48.138;11.538;2022-07-17T00:00:23;11.40;;;5.80;;
69730;SDS011;56996;48.138;11.538;2022-07-17T00:02:49;10.60;;;5.50;;
69730;SDS011;56996;48.138;11.538;2022-07-17T00:05:16;10.70;;;5.50;;
69730;SDS011;56996;48.138;11.538;2022-07-17T00:07:43;11.20;;;5.50;;
69730;SDS011;56996;48.138;11.538;2022-07-17T00:10:09;9.60;;;4.90;;
69730;SDS011;56996;48.138;11.538;2022-07-17T00:12:36;10.50;;;4.80;;
69730;SDS011;56996;48.138;11.538;2022-07-17T00:15:03;9.90;;;5.20;;
69730;SDS011;56996;48.138;11.538;2022-07-17T00:17:30;10.40;;;4.90;;
69730;SDS011;56996;48.138;11.538;2022-07-17T00:19:56;9.00;;;4.60;;
69730;SDS011;56996;48.138;11.538;2022-07-17T00:22:22;9.30;;;4.60;;
69730;SDS011;56996;48.138;11.538;2022-07-17T00:24:48;8.30;;;3.90;;
69730;SDS011;56996;48.138;11.538;2022-07-17T00:27:15;7.20;;;3.90;;
69730;SDS011;56996;48.138;11.538;2022-07-17T00:29:41;9.00;;;4.00;;
69730;SDS011;56996;48.138;11.538;2022-07-17T00:32:07;7.90;;;4.00;;
69730;SDS011;56996;48.138;11.538;2022-07-17T00:34:33;8.80;;;4.20;;
69730;SDS011;56996;48.138;11.538;2022-07-17T00:36:59;9.30;;;4.10;;
69730;SDS011;56996;48.138;11.538;2022-07-17T00:39:25;8.80;;;4.00;;
69730;SDS011;56996;48.138;11.538;2022-07-17T00:41:51;7.90;;;4.00;;
69730;SDS011;56996;48.138;11.538;2022-07-17T00:44:17;7.80;;;3.80;;
69730;SDS011;56996;48.138;11.538;2022-07-17T00:46:44;8.90;;;4.00;;
69730;SDS011;56996;48.138;11.538;2022-07-17T00:49:10;8.90;;;4.10;;
69730;SDS011;56996;48.138;11.538;2022-07-17T00:51:37;8.20;;;3.60;;
69730;SDS011;56996;48.138;11.538;2022-07-17T00:54:04;7.90;;;3.90;;
69730;SDS011;56996;48.138;11.538;2022-07-17T00:56:36;8.60;;;3.60;;
69730;SDS011;56996;48.138;11.538;2022-07-17T00:59:03;7.80;;;3.90;;
69730;SDS011;56996;48.138;11.538;2022-07-17T01:01:30;7.90;;;3.90;;
69730;SDS011;56996;48.138;11.538;2022-07-17T01:03:58;8.80;;;3.40;;
69730;SDS011;56996;48.138;11.538;2022-07-17T01:06:25;7.50;;;3.10;;
69730;SDS011;56996;48.138;11.538;2022-07-17T01:08:51;7.50;;;3.50;;
69730;SDS011;56996;48.138;11.538;2022-07-17T01:11:17;9.00;;;3.80;;
69730;SDS011;56996;48.138;11.538;2022-07-17T01:13:44;8.90;;;3.70;;
69730;SDS011;56996;48.138;11.538;2022-07-17T01:16:11;7.50;;;3.50;;
69730;SDS011;56996;48.138;11.538;2022-07-17T01:18:37;8.50;;;3.90;;
69730;SDS011;56996;48.138;11.538;2022-07-17T01:21:05;7.00;;;2.90;;
69730;SDS011;56996;48.138;11.538;2022-07-17T01:23:32;7.40;;;3.10;;
69730;SDS011;56996;48.138;11.538;2022-07-17T01:25:58;7.40;;;3.20;;
69730;SDS011;56996;48.138;11.538;2022-07-17T01:28:25;7.20;;;2.70;;
69730;SDS011;56996;48.138;11.538;2022-07-17T01:30:52;7.10;;;3.40;;
69730;SDS011;56996;48.138;11.538;2022-07-17T01:33:20;6.40;;;2.90;;
69730;SDS011;56996;48.138;11.538;2022-07-17T01:35:50;7.30;;;2.80;;
69730;SDS011;56996;48.138;11.538;2022-07-17T01:38:16;7.60;;;3.20;;
69730;SDS011;56996;48.138;11.538;2022-07-17T01:40:43;6.90;;;2.90;;
69730;SDS011;56996;48.138;11.538;2022-07-17T01:43:09;8.40;;;3.50;;
69730;SDS011;56996;48.138;11.538;2022-07-17T01:45:35;7.70;;;3.40;;
69730;SDS011;56996;48.138;11.538;2022-07-17T01:48:01;7.80;;;2.90;;
69730;SDS011;56996;48.138;11.538;2022-07-17T01:50:28;6.80;;;3.30;;
69730;SDS011;56996;48.138;11.538;2022-07-17T01:52:54;9.80;;;3.60;;
69730;SDS011;56996;48.138;11.538;2022-07-17T01:55:21;6.50;;;3.20;;
69730;SDS011;56996;48.138;11.538;2022-07-17T01:57:47;6.60;;;2.60;;
69730;SDS011;56996;48.138;11.538;2022-07-17T02:00:15;6.70;;;2.70;;
69730;SDS011;56996;48.138;11.538;2022-07-17T02:02:44;6.90;;;3.10;;
69730;SDS011;56996;48.138;11.538;2022-07-17T02:05:11;6.50;;;2.50;;
69730;SDS011;56996;48.138;11.538;2022-07-17T02:07:37;7.70;;;3.10;;
69730;SDS011;56996;48.138;11.538;2022-07-17T02:10:09;7.80;;;3.20;;
69730;SDS011;56996;48.138;11.538;2022-07-17T02:12:37;7.30;;;3.30;;
69730;SDS011;56996;48.138;11.538;2022-07-17T02:15:04;8.10;;;3.40;;
69730;SDS011;56996;48.138;11.538;2022-07-17T02:17:32;5.60;;;2.50;;
69730;SDS011;56996;48.138;11.538;2022-07-17T02:19:58;8.20;;;3.00;;
69730;SDS011;56996;48.138;11.538;2022-07-17T02:22:24;6.10;;;2.90;;
69730;SDS011;56996;48.138;11.538;2022-07-17T02:24:50;6.10;;;2.80;;
69730;SDS011;56996;48.138;11.538;2022-07-17T02:27:16;7.00;;;3.20;;
69730;SDS011;56996;48.138;11.538;2022-07-17T02:29:42;8.90;;;3.30;;
69730;SDS011;56996;48.138;11.538;2022-07-17T02:32:09;6.50;;;2.80;;
69730;SDS011;56996;48.138;11.538;2022-07-17T02:34:35;7.10;;;2.80;;
69730;SDS011;56996;48.138;11.538;2022-07-17T02:37:01;8.00;;;3.30;;
69730;SDS011;56996;48.138;11.538;2022-07-17T02:39:27;6.60;;;2.90;;
69730;SDS011;56996;48.138;11.538;2022-07-17T02:41:53;5.80;;;2.40;;
69730;SDS011;56996;48.138;11.538;2022-07-17T02:44:19;8.00;;;3.00;;
69730;SDS011;56996;48.138;11.538;2022-07-17T02:46:45;5.60;;;2.80;;
69730;SDS011;56996;48.138;11.538;2022-07-17T02:49:11;8.10;;;3.40;;
69730;SDS011;56996;48.138;11.538;2022-07-17T02:51:37;7.80;;;3.50;;
69730;SDS011;56996;48.138;11.538;2022-07-17T02:54:04;7.30;;;3.30;;
69730;SDS011;56996;48.138;11.538;2022-07-17T02:56:30;7.90;;;3.80;;
69730;SDS011;56996;48.138;11.538;2022-07-17T02:58:56;8.30;;;3.30;;
69730;SDS011;56996;48.138;11.538;2022-07-17T03:01:22;5.80;;;2.80;;
69730;SDS011;56996;48.138;11.538;2022-07-17T03:03:48;5.60;;;2.50;;
69730;SDS011;56996;48.138;11.538;2022-07-17T03:06:15;7.70;;;2.90;;
69730;SDS011;56996;48.138;11.538;2022-07-17T03:08:41;6.90;;;2.90;;
69730;SDS011;56996;48.138;11.538;2022-07-17T03:11:07;6.90;;;3.40;;
69730;SDS011;56996;48.138;11.538;2022-07-17T03:13:33;7.30;;;3.50;;
69730;SDS011;56996;48.138;11.538;2022-07-17T03:15:59;8.00;;;3.50;;
69730;SDS011;56996;48.138;11.538;2022-07-17T03:18:25;8.60;;;3.40;;
69730;SDS011;56996;48.138;11.538;2022-07-17T03:20:51;7.10;;;3.20;;
69730;SDS011;56996;48.138;11.538;2022-07-17T03:23:17;7.10;;;3.30;;
69730;SDS011;56996;48.138;11.538;2022-07-17T03:25:43;9.20;;;2.80;;
69730;SDS011;56996;48.138;11.538;2022-07-17T03:28:09;6.50;;;3.10;;
69730;SDS011;56996;48.138;11.538;2022-07-17T03:30:35;6.30;;;3.10;;
69730;SDS011;56996;48.138;11.538;2022-07-17T03:33:01;7.30;;;3.70;;
69730;SDS011;56996;48.138;11.538;2022-07-17T03:35:27;7.10;;;3.20;;
69730;SDS011;56996;48.138;11.538;2022-07-17T03:37:54;10.40;;;4.90;;
69730;SDS011;56996;48.138;11.538;2022-07-17T03:40:20;8.70;;;3.60;;
69730;SDS011;56996;48.138;11.538;2022-07-17T03:42:46;7.90;;;3.60;;
69730;SDS011;56996;48.138;11.538;2022-07-17T03:45:15;8.90;;;3.50;;
69730;SDS011;56996;48.138;11.538;2022-07-17T03:47:41;8.40;;;3.50;;
69730;SDS011;56996;48.138;11.538;2022-07-17T03:50:07;7.90;;;3.90;;
69730;SDS011;56996;48.138;11.538;2022-07-17T03:52:33;6.70;;;2.80;;
69730;SDS011;56996;48.138;11.538;2022-07-17T03:54:59;6.80;;;3.70;;
69730;SDS011;56996;48.138;11.538;2022-07-17T03:57:25;6.80;;;3.30;;
69730;SDS011;56996;48.138;11.538;2022-07-17T03:59:51;7.10;;;3.10;;
69730;SDS011;56996;48.138;11.538;2022-07-17T04:02:18;7.90;;;3.70;;
69730;SDS011;56996;48.138;11.538;2022-07-17T04:04:44;7.50;;;3.50;;
69730;SDS011;56996;48.138;11.538;2022-07-17T04:07:10;10.10;;;3.50;;
69730;SDS011;56996;48.138;11.538;2022-07-17T04:09:56;8.80;;;3.90;;
69730;SDS011;56996;48.138;11.538;2022-07-17T04:12:24;8.90;;;3.50;;
69730;SDS011;56996;48.138;11.538;2022-07-17T04:14:51;7.80;;;3.80;;
69730;SDS011;56996;48.138;11.538;2022-07-17T04:17:17;7.40;;;3.80;;
69730;SDS011;56996;48.138;11.538;2022-07-17T04:19:43;8.40;;;3.90;;
69730;SDS011;56996;48.138;11.538;2022-07-17T04:22:09;6.60;;;3.10;;
69730;SDS011;56996;48.138;11.538;2022-07-17T04:24:36;8.00;;;3.40;;
69730;SDS011;56996;48.138;11.538;2022-07-17T04:27:02;7.10;;;3.10;;
69730;SDS011;56996;48.138;11.538;2022-07-17T04:29:28;7.30;;;3.70;;
69730;SDS011;56996;48.138;11.538;2022-07-17T04:31:54;7.00;;;2.90;;
69730;SDS011;56996;48.138;11.538;2022-07-17T04:34:21;9.00;;;3.70;;
69730;SDS011;56996;48.138;11.538;2022-07-17T04:36:47;7.20;;;3.70;;
69730;SDS011;56996;48.138;11.538;2022-07-17T04:39:13;7.50;;;3.60;;
69730;SDS011;56996;48.138;11.538;2022-07-17T04:41:39;7.10;;;3.40;;
69730;SDS011;56996;48.138;11.538;2022-07-17T04:44:05;7.80;;;4.00;;
69730;SDS011;56996;48.138;11.538;2022-07-17T04:46:31;8.50;;;3.80;;
69730;SDS011;56996;48.138;11.538;2022-07-17T04:48:57;7.90;;;3.60;;
69730;SDS011;56996;48.138;11.538;2022-07-17T04:51:23;8.40;;;3.70;;
69730;SDS011;56996;48.138;11.538;2022-07-17T04:53:49;6.90;;;3.70;;
69730;SDS011;56996;48.138;11.538;2022-07-17T04:56:16;7.00;;;3.70;;
69730;SDS011;56996;48.138;11.538;2022-07-17T04:58:42;8.40;;;3.50;;
69730;SDS011;56996;48.138;11.538;2022-07-17T05:01:08;7.00;;;3.80;;
69730;SDS011;56996;48.138;11.538;2022-07-17T05:03:34;7.90;;;3.80;;
69730;SDS011;56996;48.138;11.538;2022-07-17T05:06:00;7.50;;;3.60;;
69730;SDS011;56996;48.138;11.538;2022-07-17T05:08:26;8.00;;;4.00;;
69730;SDS011;56996;48.138;11.538;2022-07-17T05:10:52;7.70;;;3.80;;
69730;SDS011;56996;48.138;11.538;2022-07-17T05:13:18;7.60;;;4.00;;
69730;SDS011;56996;48.138;11.538;2022-07-17T05:15:45;8.70;;;3.30;;
69730;SDS011;56996;48.138;11.538;2022-07-17T05:18:11;7.40;;;3.40;;
69730;SDS011;56996;48.138;11.538;2022-07-17T05:20:39;7.00;;;2.90;;
69730;SDS011;56996;48.138;11.538;2022-07-17T05:23:06;7.10;;;3.00;;
69730;SDS011;56996;48.138;11.538;2022-07-17T05:25:32;8.50;;;2.90;;
69730;SDS011;56996;48.138;11.538;2022-07-17T05:27:58;7.00;;;2.50;;
69730;SDS011;56996;48.138;11.538;2022-07-17T05:30:24;6.90;;;2.60;;
69730;SDS011;56996;48.138;11.538;2022-07-17T05:32:51;6.70;;;2.40;;
69730;SDS011;56996;48.138;11.538;2022-07-17T05:35:17;6.50;;;2.60;;
69730;SDS011;56996;48.138;11.538;2022-07-17T05:37:43;6.60;;;2.60;;
69730;SDS011;56996;48.138;11.538;2022-07-17T05:40:09;6.20;;;2.60;;
69730;SDS011;56996;48.138;11.538;2022-07-17T05:42:35;7.50;;;3.00;;
69730;SDS011;56996;48.138;11.538;2022-07-17T05:45:03;6.80;;;2.70;;
69730;SDS011;56996;48.138;11.538;2022-07-17T05:47:29;7.10;;;3.30;;
69730;SDS011;56996;48.138;11.538;2022-07-17T05:49:56;6.50;;;2.70;;
69730;SDS011;56996;48.138;11.538;2022-07-17T05:52:23;6.00;;;2.50;;
69730;SDS011;56996;48.138;11.538;2022-07-17T05:54:49;5.70;;;2.40;;
69730;SDS011;56996;48.138;11.538;2022-07-17T05:57:15;9.10;;;3.20;;
69730;SDS011;56996;48.138;11.538;2022-07-17T05:59:42;6.60;;;2.50;;
69730;SDS011;56996;48.138;11.538;2022-07-17T06:02:08;6.70;;;3.00;;
69730;SDS011;56996;48.138;11.538;2022-07-17T06:04:34;6.80;;;3.00;;
69730;SDS011;56996;48.138;11.538;2022-07-17T06:07:00;7.50;;;2.70;;
69730;SDS011;56996;48.138;11.538;2022-07-17T06:09:26;6.20;;;2.50;;
69730;SDS011;56996;48.138;11.538;2022-07-17T06:11:52;7.50;;;3.30;;
69730;SDS011;56996;48.138;11.538;2022-07-17T06:14:18;7.40;;;3.50;;
69730;SDS011;56996;48.138;11.538;2022-07-17T06:16:45;5.70;;;2.40;;
69730;SDS011;56996;48.138;11.538;2022-07-17T06:19:11;5.30;;;2.60;;
69730;SDS011;56996;48.138;11.538;2022-07-17T06:21:37;7.10;;;3.10;;
69730;SDS011;56996;48.138;11.538;2022-07-17T06:24:03;8.50;;;3.40;;
69730;SDS011;56996;48.138;11.538;2022-07-17T06:26:29;5.70;;;2.20;;
69730;SDS011;56996;48.138;11.538;2022-07-17T06:28:55;5.60;;;2.90;;
69730;SDS011;56996;48.138;11.538;2022-07-17T06:31:21;6.60;;;3.40;;
69730;SDS011;56996;48.138;11.538;2022-07-17T06:33:49;6.30;;;3.20;;
69730;SDS011;56996;48.138;11.538;2022-07-17T06:36:15;6.90;;;3.60;;
69730;SDS011;56996;48.138;11.538;2022-07-17T06:38:41;7.20;;;3.50;;
69730;SDS011;56996;48.138;11.538;2022-07-17T06:41:07;6.20;;;3.10;;
69730;SDS011;56996;48.138;11.538;2022-07-17T06:43:33;6.10;;;3.90;;
69730;SDS011;56996;48.138;11.538;2022-07-17T06:45:59;7.70;;;3.70;;
69730;SDS011;56996;48.138;11.538;2022-07-17T06:48:25;6.90;;;4.20;;
69730;SDS011;56996;48.138;11.538;2022-07-17T06:50:51;7.00;;;4.40;;
69730;SDS011;56996;48.138;11.538;2022-07-17T06:53:18;7.10;;;4.80;;
69730;SDS011;56996;48.138;11.538;2022-07-17T06:55:44;6.50;;;4.30;;
69730;SDS011;56996;48.138;11.538;2022-07-17T06:58:10;6.70;;;4.40;;
69730;SDS011;56996;48.138;11.538;2022-07-17T07:00:37;6.00;;;4.50;;
69730;SDS011;56996;48.138;11.538;2022-07-17T07:03:04;6.50;;;4.80;;
69730;SDS011;56996;48.138;11.538;2022-07-17T07:05:30;7.00;;;5.50;;
69730;SDS011;56996;48.138;11.538;2022-07-17T07:07:56;7.60;;;5.70;;
69730;SDS011;56996;48.138;11.538;2022-07-17T07:10:23;7.00;;;5.20;;
69730;SDS011;56996;48.138;11.538;2022-07-17T07:12:49;7.60;;;6.30;;
69730;SDS011;56996;48.138;11.538;2022-07-17T07:15:16;6.40;;;5.70;;
69730;SDS011;56996;48.138;11.538;2022-07-17T07:17:43;6.60;;;5.60;;
69730;SDS011;56996;48.138;11.538;2022-07-17T07:20:10;6.60;;;5.90;;
69730;SDS011;56996;48.138;11.538;2022-07-17T07:22:37;7.10;;;5.70;;
69730;SDS011;56996;48.138;11.538;2022-07-17T07:25:04;7.40;;;6.60;;
69730;SDS011;56996;48.138;11.538;2022-07-17T07:27:30;8.50;;;6.60;;
69730;SDS011;56996;48.138;11.538;2022-07-17T07:29:56;7.90;;;7.10;;
69730;SDS011;56996;48.138;11.538;2022-07-17T07:32:22;7.80;;;7.00;;
69730;SDS011;56996;48.138;11.538;2022-07-17T07:34:48;7.50;;;6.70;;
69730;SDS011;56996;48.138;11.538;2022-07-17T07:37:14;7.80;;;7.10;;
69730;SDS011;56996;48.138;11.538;2022-07-17T07:39:40;7.70;;;6.90;;
69730;SDS011;56996;48.138;11.538;2022-07-17T07:42:07;8.00;;;7.00;;
69730;SDS011;56996;48.138;11.538;2022-07-17T07:44:33;8.00;;;7.20;;
69730;SDS011;56996;48.138;11.538;2022-07-17T07:47:01;8.60;;;7.90;;
69730;SDS011;56996;48.138;11.538;2022-07-17T07:49:27;8.80;;;7.90;;
69730;SDS011;56996;48.138;11.538;2022-07-17T07:51:53;9.70;;;8.90;;
69730;SDS011;56996;48.138;11.538;2022-07-17T07:54:30;9.50;;;8.70;;
69730;SDS011;56996;48.138;11.538;2022-07-17T07:56:56;10.40;;;9.60;;
69730;SDS011;56996;48.138;11.538;2022-07-17T07:59:22;9.70;;;8.90;;
69730;SDS011;56996;48.138;11.538;2022-07-17T08:01:49;9.20;;;8.30;;
69730;SDS011;56996;48.138;11.538;2022-07-17T08:04:16;10.30;;;9.50;;
69730;SDS011;56996;48.138;11.538;2022-07-17T08:06:42;11.90;;;10.90;;
69730;SDS011;56996;48.138;11.538;2022-07-17T08:09:08;11.70;;;10.70;;
69730;SDS011;56996;48.138;11.538;2022-07-17T08:11:35;11.10;;;10.20;;
69730;SDS011;56996;48.138;11.538;2022-07-17T08:14:01;12.10;;;11.20;;
69730;SDS011;56996;48.138;11.538;2022-07-17T08:16:38;11.50;;;10.60;;
69730;SDS011;56996;48.138;11.538;2022-07-17T08:19:04;13.20;;;12.30;;
69730;SDS011;56996;48.138;11.538;2022-07-17T08:21:31;14.20;;;13.10;;
69730;SDS011;56996;48.138;11.538;2022-07-17T08:23:57;15.70;;;14.60;;
69730;SDS011;56996;48.138;11.538;2022-07-17T08:26:23;13.50;;;12.50;;
69730;SDS011;56996;48.138;11.538;2022-07-17T08:28:49;14.70;;;13.70;;
69730;SDS011;56996;48.138;11.538;2022-07-17T08:31:15;14.30;;;13.20;;
69730;SDS011;56996;48.138;11.538;2022-07-17T08:33:41;14.80;;;13.90;;
69730;SDS011;56996;48.138;11.538;2022-07-17T08:36:08;13.20;;;12.30;;
69730;SDS011;56996;48.138;11.538;2022-07-17T08:38:34;14.40;;;13.40;;
69730;SDS011;56996;48.138;11.538;2022-07-17T08:41:00;13.70;;;12.70;;
69730;SDS011;56996;48.138;11.538;2022-07-17T08:43:26;14.40;;;13.50;;
69730;SDS011;56996;48.138;11.538;2022-07-17T08:45:54;11.60;;;10.80;;
69730;SDS011;56996;48.138;11.538;2022-07-17T08:48:22;13.70;;;12.70;;
69730;SDS011;56996;48.138;11.538;2022-07-17T08:50:52;13.50;;;12.50;;
69730;SDS011;56996;48.138;11.538;2022-07-17T08:53:22;17.10;;;16.00;;
69730;SDS011;56996;48.138;11.538;2022-07-17T08:55:49;13.40;;;12.50;;
69730;SDS011;56996;48.138;11.538;2022-07-17T08:58:17;15.90;;;14.80;;
69730;SDS011;56996;48.138;11.538;2022-07-17T09:00:43;13.10;;;12.10;;
69730;SDS011;56996;48.138;11.538;2022-07-17T09:03:11;13.20;;;12.30;;
69730;SDS011;56996;48.138;11.538;2022-07-17T09:05:38;15.00;;;14.00;;
69730;SDS011;56996;48.138;11.538;2022-07-17T09:08:08;13.20;;;12.30;;
69730;SDS011;56996;48.138;11.538;2022-07-17T09:10:45;12.90;;;12.10;;
69730;SDS011;56996;48.138;11.538;2022-07-17T09:16:06;18.90;;;17.70;;
69730;SDS011;56996;48.138;11.538;2022-07-17T09:18:46;16.80;;;15.70;;
69730;SDS011;56996;48.138;11.538;2022-07-17T09:21:21;17.40;;;16.20;;
69730;SDS011;56996;48.138;11.538;2022-07-17T09:24:02;16.40;;;15.40;;
69730;SDS011;56996;48.138;11.538;2022-07-17T09:26:36;14.60;;;13.70;;
69730;SDS011;56996;48.138;11.538;2022-07-17T09:29:10;13.70;;;12.80;;
69730;SDS011;56996;48.138;11.538;2022-07-17T09:31:38;12.60;;;11.70;;
69730;SDS011;56996;48.138;11.538;2022-07-17T09:34:04;12.20;;;11.40;;
69730;SDS011;56996;48.138;11.538;2022-07-17T09:36:31;10.40;;;9.60;;
69730;SDS011;56996;48.138;11.538;2022-07-17T09:38:58;10.90;;;9.90;;
69730;SDS011;56996;48.138;11.538;2022-07-17T09:41:25;8.70;;;7.90;;
69730;SDS011;56996;48.138;11.538;2022-07-17T09:43:56;7.40;;;6.50;;
69730;SDS011;56996;48.138;11.538;2022-07-17T09:46:33;7.40;;;6.00;;
69730;SDS011;56996;48.138;11.538;2022-07-17T09:49:06;5.40;;;4.20;;
69730;SDS011;56996;48.138;11.538;2022-07-17T09:51:38;6.50;;;4.00;;
69730;SDS011;56996;48.138;11.538;2022-07-17T09:54:07;6.60;;;4.30;;
69730;SDS011;56996;48.138;11.538;2022-07-17T09:56:36;5.30;;;3.50;;
69730;SDS011;56996;48.138;11.538;2022-07-17T09:59:08;5.20;;;3.20;;
69730;SDS011;56996;48.138;11.538;2022-07-17T10:01:38;6.70;;;3.10;;
69730;SDS011;56996;48.138;11.538;2022-07-17T10:04:05;5.70;;;2.70;;
69730;SDS011;56996;48.138;11.538;2022-07-17T10:06:32;5.40;;;2.70;;
69730;SDS011;56996;48.138;11.538;2022-07-17T10:09:00;5.50;;;2.40;;
69730;SDS011;56996;48.138;11.538;2022-07-17T10:11:29;6.10;;;2.10;;
69730;SDS011;56996;48.138;11.538;2022-07-17T10:14:05;5.20;;;2.20;;
69730;SDS011;56996;48.138;11.538;2022-07-17T10:16:35;6.50;;;2.40;;
69730;SDS011;56996;48.138;11.538;2022-07-17T10:19:22;5.10;;;2.40;;
69730;SDS011;56996;48.138;11.538;2022-07-17T10:21:58;4.90;;;1.90;;
69730;SDS011;56996;48.138;11.538;2022-07-17T10:24:29;6.80;;;2.60;;
69730;SDS011;56996;48.138;11.538;2022-07-17T10:26:57;3.90;;;1.80;;
69730;SDS011;56996;48.138;11.538;2022-07-17T10:29:36;4.30;;;1.80;;
69730;SDS011;56996;48.138;11.538;2022-07-17T10:32:17;4.80;;;2.20;;
69730;SDS011;56996;48.138;11.538;2022-07-17T10:34:47;5.80;;;2.10;;
69730;SDS011;56996;48.138;11.538;2022-07-17T10:37:39;5.10;;;2.30;;
69730;SDS011;56996;48.138;11.538;2022-07-17T10:40:24;4.30;;;1.90;;
69730;SDS011;56996;48.138;11.538;2022-07-17T10:43:07;5.30;;;1.80;;
69730;SDS011;56996;48.138;11.538;2022-07-17T10:45:36;6.60;;;2.30;;
69730;SDS011;56996;48.138;11.538;2022-07-17T10:48:21;4.90;;;2.20;;
69730;SDS011;56996;48.138;11.538;2022-07-17T10:50:55;4.30;;;1.70;;
69730;SDS011;56996;48.138;11.538;2022-07-17T10:53:23;5.30;;;2.10;;
69730;SDS011;56996;48.138;11.538;2022-07-17T10:55:55;4.80;;;2.10;;
69730;SDS011;56996;48.138;11.538;2022-07-17T10:58:23;4.80;;;2.00;;
69730;SDS011;56996;48.138;11.538;2022-07-17T11:01:38;5.00;;;1.90;;
69730;SDS011;56996;48.138;11.538;2022-07-17T11:03:59;6.50;;;2.20;;
69730;SDS011;56996;48.138;11.538;2022-07-17T11:06:29;6.20;;;2.50;;
69730;SDS011;56996;48.138;11.538;2022-07-17T11:09:00;9.70;;;6.40;;
69730;SDS011;56996;48.138;11.538;2022-07-17T11:11:35;5.90;;;2.50;;
69730;SDS011;56996;48.138;11.538;2022-07-17T11:14:21;5.10;;;1.80;;
69730;SDS011;56996;48.138;11.538;2022-07-17T11:16:51;7.60;;;4.50;;
69730;SDS011;56996;48.138;11.538;2022-07-17T11:22:11;5.10;;;2.00;;
69730;SDS011;56996;48.138;11.538;2022-07-17T11:24:48;10.30;;;5.20;;
69730;SDS011;56996;48.138;11.538;2022-07-17T11:29:57;5.00;;;2.00;;
69730;SDS011;56996;48.138;11.538;2022-07-17T11:32:34;16.50;;;14.20;;
69730;SDS011;56996;48.138;11.538;2022-07-17T11:35:17;6.00;;;3.60;;
69730;SDS011;56996;48.138;11.538;2022-07-17T11:38:04;4.90;;;2.10;;
69730;SDS011;56996;48.138;11.538;2022-07-17T11:40:30;5.40;;;2.20;;
69730;SDS011;56996;48.138;11.538;2022-07-17T11:43:00;5.30;;;2.00;;
69730;SDS011;56996;48.138;11.538;2022-07-17T11:45:26;6.40;;;2.00;;
69730;SDS011;56996;48.138;11.538;2022-07-17T11:47:52;4.50;;;1.80;;
69730;SDS011;56996;48.138;11.538;2022-07-17T11:50:18;7.10;;;2.60;;
69730;SDS011;56996;48.138;11.538;2022-07-17T11:52:47;5.80;;;2.10;;
69730;SDS011;56996;48.138;11.538;2022-07-17T11:55:14;9.70;;;4.30;;
69730;SDS011;56996;48.138;11.538;2022-07-17T11:57:43;7.90;;;4.60;;
69730;SDS011;56996;48.138;11.538;2022-07-17T12:00:12;5.00;;;2.10;;
69730;SDS011;56996;48.138;11.538;2022-07-17T12:02:44;4.70;;;1.70;;
69730;SDS011;56996;48.138;11.538;2022-07-17T12:05:11;5.70;;;2.30;;
69730;SDS011;56996;48.138;11.538;2022-07-17T12:07:40;7.00;;;3.60;;
69730;SDS011;56996;48.138;11.538;2022-07-17T12:10:18;5.80;;;2.30;;
69730;SDS011;56996;48.138;11.538;2022-07-17T12:13:07;4.40;;;1.60;;
69730;SDS011;56996;48.138;11.538;2022-07-17T12:15:48;5.20;;;2.30;;
69730;SDS011;56996;48.138;11.538;2022-07-17T12:18:27;7.80;;;4.70;;
69730;SDS011;56996;48.138;11.538;2022-07-17T12:21:01;4.70;;;2.10;;
69730;SDS011;56996;48.138;11.538;2022-07-17T12:23:34;4.90;;;1.90;;
69730;SDS011;56996;48.138;11.538;2022-07-17T12:26:11;5.60;;;2.50;;
69730;SDS011;56996;48.138;11.538;2022-07-17T12:28:39;5.30;;;2.20;;
69730;SDS011;56996;48.138;11.538;2022-07-17T12:31:07;6.30;;;3.00;;
69730;SDS011;56996;48.138;11.538;2022-07-17T12:33:34;10.70;;;7.40;;
69730;SDS011;56996;48.138;11.538;2022-07-17T12:36:00;5.60;;;2.20;;
69730;SDS011;56996;48.138;11.538;2022-07-17T12:38:26;5.20;;;1.80;;
69730;SDS011;56996;48.138;11.538;2022-07-17T12:40:53;5.10;;;1.90;;
69730;SDS011;56996;48.138;11.538;2022-07-17T12:43:19;4.80;;;1.80;;
69730;SDS011;56996;48.138;11.538;2022-07-17T12:45:46;4.40;;;1.90;;
69730;SDS011;56996;48.138;11.538;2022-07-17T12:48:12;5.00;;;1.70;;
69730;SDS011;56996;48.138;11.538;2022-07-17T12:50:38;5.00;;;1.90;;
69730;SDS011;56996;48.138;11.538;2022-07-17T12:53:05;5.90;;;1.80;;
69730;SDS011;56996;48.138;11.538;2022-07-17T12:55:33;6.00;;;2.00;;
69730;SDS011;56996;48.138;11.538;2022-07-17T12:58:00;7.30;;;2.60;;
69730;SDS011;56996;48.138;11.538;2022-07-17T13:00:26;4.70;;;2.20;;
69730;SDS011;56996;48.138;11.538;2022-07-17T13:02:52;4.80;;;1.80;;
69730;SDS011;56996;48.138;11.538;2022-07-17T13:05:28;5.20;;;2.10;;
69730;SDS011;56996;48.138;11.538;2022-07-17T13:07:55;5.10;;;1.90;;
69730;SDS011;56996;48.138;11.538;2022-07-17T13:10:21;4.40;;;1.50;;
69730;SDS011;56996;48.138;11.538;2022-07-17T13:12:48;4.00;;;1.60;;
69730;SDS011;56996;48.138;11.538;2022-07-17T13:15:14;6.40;;;1.90;;
69730;SDS011;56996;48.138;11.538;2022-07-17T13:17:43;4.90;;;1.90;;
69730;SDS011;56996;48.138;11.538;2022-07-17T13:20:10;4.80;;;1.40;;
69730;SDS011;56996;48.138;11.538;2022-07-17T13:22:38;4.00;;;1.50;;
69730;SDS011;56996;48.138;11.538;2022-07-17T13:25:04;5.30;;;1.70;;
69730;SDS011;56996;48.138;11.538;2022-07-17T13:27:30;4.20;;;1.70;;
69730;SDS011;56996;48.138;11.538;2022-07-17T13:29:56;4.30;;;1.60;;
69730;SDS011;56996;48.138;11.538;2022-07-17T13:32:22;5.30;;;1.70;;
69730;SDS011;56996;48.138;11.538;2022-07-17T13:34:48;5.60;;;1.80;;
69730;SDS011;56996;48.138;11.538;2022-07-17T13:37:14;3.90;;;1.40;;
69730;SDS011;56996;48.138;11.538;2022-07-17T13:39:40;4.20;;;1.50;;
69730;SDS011;56996;48.138;11.538;2022-07-17T13:42:07;5.30;;;1.80;;
69730;SDS011;56996;48.138;11.538;2022-07-17T13:44:34;5.10;;;1.80;;
69730;SDS011;56996;48.138;11.538;2022-07-17T13:47:02;4.80;;;1.70;;
69730;SDS011;56996;48.138;11.538;2022-07-17T13:49:29;5.00;;;1.80;;
69730;SDS011;56996;48.138;11.538;2022-07-17T13:51:55;4.50;;;1.90;;
69730;SDS011;56996;48.138;11.538;2022-07-17T13:54:21;5.00;;;1.60;;
69730;SDS011;56996;48.138;11.538;2022-07-17T13:56:48;4.40;;;1.60;;
69730;SDS011;56996;48.138;11.538;2022-07-17T13:59:14;4.30;;;1.80;;
69730;SDS011;56996;48.138;11.538;2022-07-17T14:01:40;4.50;;;1.40;;
69730;SDS011;56996;48.138;11.538;2022-07-17T14:04:06;3.90;;;1.40;;
69730;SDS011;56996;48.138;11.538;2022-07-17T14:06:45;5.80;;;2.00;;
69730;SDS011;56996;48.138;11.538;2022-07-17T14:09:12;4.50;;;1.80;;
69730;SDS011;56996;48.138;11.538;2022-07-17T14:11:40;5.90;;;2.10;;
69730;SDS011;56996;48.138;11.538;2022-07-17T14:14:06;5.30;;;1.80;;
69730;SDS011;56996;48.138;11.538;2022-07-17T14:16:33;4.00;;;1.60;;
69730;SDS011;56996;48.138;11.538;2022-07-17T14:19:00;5.80;;;2.10;;
69730;SDS011;56996;48.138;11.538;2022-07-17T14:21:33;5.40;;;2.00;;
69730;SDS011;56996;48.138;11.538;2022-07-17T14:24:02;5.10;;;2.00;;
69730;SDS011;56996;48.138;11.538;2022-07-17T14:26:31;4.50;;;1.90;;
69730;SDS011;56996;48.138;11.538;2022-07-17T14:28:58;4.60;;;1.90;;
69730;SDS011;56996;48.138;11.538;2022-07-17T14:31:25;5.00;;;1.80;;
69730;SDS011;56996;48.138;11.538;2022-07-17T14:33:52;5.00;;;1.90;;
69730;SDS011;56996;48.138;11.538;2022-07-17T14:36:19;4.10;;;1.70;;
69730;SDS011;56996;48.138;11.538;2022-07-17T14:38:46;4.20;;;1.60;;
69730;SDS011;56996;48.138;11.538;2022-07-17T14:41:13;5.10;;;2.00;;
69730;SDS011;56996;48.138;11.538;2022-07-17T14:43:40;5.00;;;2.10;;